Weerstation
Sluispark-LeuvenLeuven-Sluispark



Nabijgelegen vliegvelden - METAR rapporten

   
EBBR - Wilsele bij Leuven
Gewijzigd: 19-01-2020 15:50
Gedeeltelijk bewolkt    Wind: NNO 13 km/h
Gedeeltelijk bewolkt
Wind: Wind: NNO 13 km/h
Temperatuur: 6°C
Voelt als: 3°C
Dauwpunt: 2°C
Vochtigheid: 76%
Barometer: 1041 hPa
Bewolking: Gedeeltelijk bewolkt
Zicht: meer dan 10 km
Bewolking: Licht bewolkt 975.4 m,
Gedeeltelijk bewolkt 1493.5 m
EBBR 191450Z 02007KT 9999 FEW032 SCT049 06/02 Q1041 NOSIG
EBAW - Antwerp
Gewijzigd: 19-01-2020 15:50
Licht bewolkt    Wind: NNO 18.5 km/h
Licht bewolkt
Wind: Wind: NNO 18.5 km/h
Temperatuur: 8°C
Voelt als: 5°C
Dauwpunt: 1°C
Vochtigheid: 62%
Barometer: 1042 hPa
Bewolking: Licht bewolkt
Zicht: meer dan 10 km
Bewolking: Licht bewolkt 914.4 m
EBAW 191450Z 02010KT 350V050 9999 FEW030 08/01 Q1042 NOSIG
EBLG - Li├Ęge
Gewijzigd: 19-01-2020 15:50
Grotendeels bewolkt    Wind: Noorden 14.8 km/h
Grotendeels bewolkt
Wind: Wind: Noorden 14.8 km/h
Temperatuur: 5°C
Voelt als: 2°C
Dauwpunt: 2°C
Vochtigheid: 81%
Barometer: 1040 hPa
Bewolking: Grotendeels bewolkt
Zicht: meer dan 10 km
Bewolking: Gedeeltelijk bewolkt 457.2 m,
Grotendeels bewolkt 731.5 m
EBLG 191450Z 01008KT 9999 SCT015 BKN024 05/02 Q1040 NOSIG
EBCV - Mons/Bergen
Gewijzigd: 19-01-2020 15:55
   Wind: Noorden 14.8 km/h
Wind: Wind: Noorden 14.8 km/h
Temperatuur: 7°C
Voelt als: 4°C
Dauwpunt: 2°C
Vochtigheid: 71%
Barometer: 1041 hPa
Zicht: meer dan 10 km
EBCV 191455Z AUTO 01008KT 9999 /// 07/02 Q1041 BLU
EHBK - Maastricht
Gewijzigd: 19-01-2020 15:55
Bewolking    Wind: Noorden 14.8 km/h
Bewolking
Wind: Wind: Noorden 14.8 km/h
Temperatuur: 6°C
Voelt als: 3°C
Dauwpunt: 3°C
Vochtigheid: 81%
Barometer: 1040 hPa
Bewolking: Bewolking
Zicht: meer dan 10 km
Bewolking: Grotendeels bewolkt 518.2 m,
Grotendeels bewolkt 701 m,
Bewolking 1036.3 m
EHBK 191455Z AUTO 35008KT 320V030 9999 BKN017 BKN023 OVC034 06/03 Q1040 TEMPO BKN014
ELLX - Luxemburg
Gewijzigd: 19-01-2020 15:50
Kleine buien, Regen, Bewolking    Wind: Noorden 14.8 km/h
Kleine buien, Regen, Bewolking
Wind: Wind: Noorden 14.8 km/h
Temperatuur: 3°C
Voelt als: -1°C
Dauwpunt: 1°C
Vochtigheid: 87%
Barometer: 1038 hPa
Bewolking: Bewolking
Zicht: meer dan 10 km
Bewolking: Licht bewolkt 304.8 m,
Gedeeltelijk bewolkt 762 m,
Bewolking 883.9 m
ELLX 191450Z AUTO 01008KT 9999 -SHRA FEW010/// SCT025/// OVC029/// 03/01 Q1038 TEMPO -SHRASN FEW015TCU
EBOS - Oostende
Gewijzigd: 19-01-2020 15:50
Licht bewolkt    Wind: NNO 18.5 km/h
Licht bewolkt
Wind: Wind: NNO 18.5 km/h
Temperatuur: 7°C
Voelt als: 4°C
Dauwpunt: 3°C
Vochtigheid: 76%
Barometer: 1043 hPa
Bewolking: Licht bewolkt
Zicht: meer dan 10 km
Bewolking: Licht bewolkt 609.6 m
EBOS 191450Z 02010KT 9999 FEW020 07/03 Q1043 NOSIG
  

Script ontwikkeld door  Saratoga-weather.org Aangepast voor de template door  Weerstation Leuven

U vindt ons ook hier:

UK Metoffice

WeatherCloud

European Weather Network

Weather Underground

Benelux Weather Network

AWEKAS

WeatherlinkIP

Het Weer Aktueel

Apparatuur in gebruik:

Weer-station
Davis VP2 weatherstation

Weer-programma
Meteobridge

Weer-computer
D-Link DIR-505

Webleverancier
Robohost

Davis VP2 weatherstation

Meteobridge

D-Link DIR-505

Robohost